sensor_id;sensor_type;location;lat;lon;timestamp;temperature;humidity
20370;DHT22;10344;47.592;9.600;2023-11-19T00:02:15;7.20;99.90
20370;DHT22;10344;47.592;9.600;2023-11-19T00:04:41;7.20;99.90
20370;DHT22;10344;47.592;9.600;2023-11-19T00:07:09;7.20;99.90
20370;DHT22;10344;47.592;9.600;2023-11-19T00:09:36;7.20;99.90
20370;DHT22;10344;47.592;9.600;2023-11-19T00:12:03;7.20;99.90
20370;DHT22;10344;47.592;9.600;2023-11-19T00:14:30;7.20;99.90
20370;DHT22;10344;47.592;9.600;2023-11-19T00:16:56;7.20;99.90
20370;DHT22;10344;47.592;9.600;2023-11-19T00:19:21;7.20;99.90
20370;DHT22;10344;47.592;9.600;2023-11-19T00:21:47;7.20;99.90
20370;DHT22;10344;47.592;9.600;2023-11-19T00:24:13;7.20;99.90
20370;DHT22;10344;47.592;9.600;2023-11-19T00:26:43;7.30;99.90
20370;DHT22;10344;47.592;9.600;2023-11-19T00:29:09;7.30;99.90
20370;DHT22;10344;47.592;9.600;2023-11-19T00:31:35;7.30;99.90
20370;DHT22;10344;47.592;9.600;2023-11-19T00:34:04;7.30;99.90
20370;DHT22;10344;47.592;9.600;2023-11-19T00:36:31;7.20;99.90
20370;DHT22;10344;47.592;9.600;2023-11-19T00:38:57;7.20;99.90
20370;DHT22;10344;47.592;9.600;2023-11-19T00:41:23;7.30;99.90
20370;DHT22;10344;47.592;9.600;2023-11-19T00:43:51;7.30;99.90
20370;DHT22;10344;47.592;9.600;2023-11-19T00:46:18;7.30;99.90
20370;DHT22;10344;47.592;9.600;2023-11-19T00:48:45;7.30;99.90
20370;DHT22;10344;47.592;9.600;2023-11-19T00:51:12;7.30;99.90
20370;DHT22;10344;47.592;9.600;2023-11-19T00:53:38;7.30;99.90
20370;DHT22;10344;47.592;9.600;2023-11-19T00:56:04;7.30;99.90
20370;DHT22;10344;47.592;9.600;2023-11-19T00:58:32;7.20;99.90
20370;DHT22;10344;47.592;9.600;2023-11-19T01:00:58;7.20;99.90
20370;DHT22;10344;47.592;9.600;2023-11-19T01:03:25;7.10;99.90
20370;DHT22;10344;47.592;9.600;2023-11-19T01:05:51;7.10;99.90
20370;DHT22;10344;47.592;9.600;2023-11-19T01:08:18;7.10;99.90
20370;DHT22;10344;47.592;9.600;2023-11-19T01:10:45;7.10;99.90
20370;DHT22;10344;47.592;9.600;2023-11-19T01:13:11;7.10;99.90
20370;DHT22;10344;47.592;9.600;2023-11-19T01:15:37;7.10;99.90
20370;DHT22;10344;47.592;9.600;2023-11-19T01:18:04;7.10;99.90
20370;DHT22;10344;47.592;9.600;2023-11-19T01:20:34;7.20;99.90
20370;DHT22;10344;47.592;9.600;2023-11-19T01:23:00;7.20;99.90
20370;DHT22;10344;47.592;9.600;2023-11-19T01:25:26;7.20;99.90
20370;DHT22;10344;47.592;9.600;2023-11-19T01:27:51;7.10;99.90
20370;DHT22;10344;47.592;9.600;2023-11-19T01:30:17;7.10;99.90
20370;DHT22;10344;47.592;9.600;2023-11-19T01:32:42;7.20;99.90
20370;DHT22;10344;47.592;9.600;2023-11-19T01:35:08;7.20;99.90
20370;DHT22;10344;47.592;9.600;2023-11-19T01:37:34;7.20;99.90
20370;DHT22;10344;47.592;9.600;2023-11-19T01:40:03;7.30;99.90
20370;DHT22;10344;47.592;9.600;2023-11-19T01:42:40;7.30;99.90
20370;DHT22;10344;47.592;9.600;2023-11-19T01:45:06;7.30;99.90
20370;DHT22;10344;47.592;9.600;2023-11-19T01:47:35;7.30;99.90
20370;DHT22;10344;47.592;9.600;2023-11-19T01:50:02;7.30;99.90
20370;DHT22;10344;47.592;9.600;2023-11-19T01:52:33;7.30;99.90
20370;DHT22;10344;47.592;9.600;2023-11-19T01:55:00;7.20;99.90
20370;DHT22;10344;47.592;9.600;2023-11-19T01:57:26;7.20;99.90
20370;DHT22;10344;47.592;9.600;2023-11-19T01:59:52;7.20;99.90
20370;DHT22;10344;47.592;9.600;2023-11-19T02:02:18;7.10;99.90
20370;DHT22;10344;47.592;9.600;2023-11-19T02:04:47;7.20;99.90
20370;DHT22;10344;47.592;9.600;2023-11-19T02:07:14;7.10;99.90
20370;DHT22;10344;47.592;9.600;2023-11-19T02:09:43;7.10;99.90
20370;DHT22;10344;47.592;9.600;2023-11-19T02:12:09;7.20;99.90
20370;DHT22;10344;47.592;9.600;2023-11-19T02:14:37;7.20;99.90
20370;DHT22;10344;47.592;9.600;2023-11-19T02:17:03;7.20;99.90
20370;DHT22;10344;47.592;9.600;2023-11-19T02:19:29;7.20;99.90
20370;DHT22;10344;47.592;9.600;2023-11-19T02:21:57;7.30;99.90
20370;DHT22;10344;47.592;9.600;2023-11-19T02:24:24;7.30;99.90
20370;DHT22;10344;47.592;9.600;2023-11-19T02:26:52;7.30;99.90
20370;DHT22;10344;47.592;9.600;2023-11-19T02:29:23;7.30;99.90
20370;DHT22;10344;47.592;9.600;2023-11-19T02:31:49;7.30;99.90
20370;DHT22;10344;47.592;9.600;2023-11-19T02:34:15;7.30;99.90
20370;DHT22;10344;47.592;9.600;2023-11-19T02:36:41;7.30;99.90
20370;DHT22;10344;47.592;9.600;2023-11-19T02:39:07;7.40;99.90
20370;DHT22;10344;47.592;9.600;2023-11-19T02:41:37;7.30;99.90
20370;DHT22;10344;47.592;9.600;2023-11-19T02:44:06;7.30;99.90
20370;DHT22;10344;47.592;9.600;2023-11-19T02:46:34;7.30;99.90
20370;DHT22;10344;47.592;9.600;2023-11-19T02:48:59;7.30;99.90
20370;DHT22;10344;47.592;9.600;2023-11-19T02:51:25;7.20;99.90
20370;DHT22;10344;47.592;9.600;2023-11-19T02:53:53;7.30;99.90
20370;DHT22;10344;47.592;9.600;2023-11-19T02:56:21;7.30;99.90
20370;DHT22;10344;47.592;9.600;2023-11-19T02:59:00;7.30;99.90
20370;DHT22;10344;47.592;9.600;2023-11-19T03:01:32;7.30;99.90
20370;DHT22;10344;47.592;9.600;2023-11-19T03:04:00;7.30;99.90
20370;DHT22;10344;47.592;9.600;2023-11-19T03:06:27;7.30;99.90
20370;DHT22;10344;47.592;9.600;2023-11-19T03:08:55;7.40;99.90
20370;DHT22;10344;47.592;9.600;2023-11-19T03:11:21;7.40;99.90
20370;DHT22;10344;47.592;9.600;2023-11-19T03:13:47;7.50;99.90
20370;DHT22;10344;47.592;9.600;2023-11-19T03:16:12;7.50;99.90
20370;DHT22;10344;47.592;9.600;2023-11-19T03:18:39;7.40;99.90
20370;DHT22;10344;47.592;9.600;2023-11-19T03:21:07;7.40;99.90
20370;DHT22;10344;47.592;9.600;2023-11-19T03:23:34;7.40;99.90
20370;DHT22;10344;47.592;9.600;2023-11-19T03:26:02;7.40;99.90
20370;DHT22;10344;47.592;9.600;2023-11-19T03:28:31;7.30;99.90
20370;DHT22;10344;47.592;9.600;2023-11-19T03:30:59;7.30;99.90
20370;DHT22;10344;47.592;9.600;2023-11-19T03:33:25;7.40;99.90
20370;DHT22;10344;47.592;9.600;2023-11-19T03:35:53;7.30;99.90
20370;DHT22;10344;47.592;9.600;2023-11-19T03:38:19;7.30;99.90
20370;DHT22;10344;47.592;9.600;2023-11-19T03:40:44;7.40;99.90
20370;DHT22;10344;47.592;9.600;2023-11-19T03:43:10;7.30;99.90
20370;DHT22;10344;47.592;9.600;2023-11-19T03:45:36;7.40;99.90
20370;DHT22;10344;47.592;9.600;2023-11-19T03:48:01;7.40;99.90
20370;DHT22;10344;47.592;9.600;2023-11-19T03:50:27;7.40;99.90
20370;DHT22;10344;47.592;9.600;2023-11-19T03:52:53;7.40;99.90
20370;DHT22;10344;47.592;9.600;2023-11-19T03:55:18;7.50;99.90
20370;DHT22;10344;47.592;9.600;2023-11-19T03:57:44;7.40;99.90
20370;DHT22;10344;47.592;9.600;2023-11-19T04:00:10;7.40;99.90
20370;DHT22;10344;47.592;9.600;2023-11-19T04:02:36;7.40;99.90
20370;DHT22;10344;47.592;9.600;2023-11-19T04:05:02;7.50;99.90
20370;DHT22;10344;47.592;9.600;2023-11-19T04:07:30;7.50;99.90
20370;DHT22;10344;47.592;9.600;2023-11-19T04:09:59;7.60;99.90
20370;DHT22;10344;47.592;9.600;2023-11-19T04:12:25;7.70;99.90
20370;DHT22;10344;47.592;9.600;2023-11-19T04:14:50;7.70;99.90
20370;DHT22;10344;47.592;9.600;2023-11-19T04:17:16;7.60;99.90
20370;DHT22;10344;47.592;9.600;2023-11-19T04:19:44;7.60;99.90
20370;DHT22;10344;47.592;9.600;2023-11-19T04:22:10;7.60;99.90
20370;DHT22;10344;47.592;9.600;2023-11-19T04:24:36;7.70;99.90
20370;DHT22;10344;47.592;9.600;2023-11-19T04:27:02;7.70;99.90
20370;DHT22;10344;47.592;9.600;2023-11-19T04:29:30;7.70;99.90
20370;DHT22;10344;47.592;9.600;2023-11-19T04:31:56;7.70;99.90
20370;DHT22;10344;47.592;9.600;2023-11-19T04:34:22;7.70;99.90
20370;DHT22;10344;47.592;9.600;2023-11-19T04:36:47;7.70;99.90
20370;DHT22;10344;47.592;9.600;2023-11-19T04:39:13;7.70;99.90
20370;DHT22;10344;47.592;9.600;2023-11-19T04:41:50;7.60;99.90
20370;DHT22;10344;47.592;9.600;2023-11-19T04:44:18;7.60;99.90
20370;DHT22;10344;47.592;9.600;2023-11-19T04:46:47;7.60;99.90
20370;DHT22;10344;47.592;9.600;2023-11-19T04:49:13;7.70;99.90
20370;DHT22;10344;47.592;9.600;2023-11-19T04:51:43;7.80;99.90
20370;DHT22;10344;47.592;9.600;2023-11-19T04:54:10;7.80;99.90
20370;DHT22;10344;47.592;9.600;2023-11-19T04:56:38;7.80;99.90
20370;DHT22;10344;47.592;9.600;2023-11-19T04:59:05;7.70;99.90
20370;DHT22;10344;47.592;9.600;2023-11-19T05:01:32;7.70;99.90
20370;DHT22;10344;47.592;9.600;2023-11-19T05:03:58;7.70;99.90
20370;DHT22;10344;47.592;9.600;2023-11-19T05:06:27;7.80;99.90
20370;DHT22;10344;47.592;9.600;2023-11-19T05:08:53;7.90;99.90
20370;DHT22;10344;47.592;9.600;2023-11-19T05:11:22;7.80;99.90
20370;DHT22;10344;47.592;9.600;2023-11-19T05:13:48;7.80;99.90
20370;DHT22;10344;47.592;9.600;2023-11-19T05:16:13;7.80;99.90
20370;DHT22;10344;47.592;9.600;2023-11-19T05:18:40;7.70;99.90
20370;DHT22;10344;47.592;9.600;2023-11-19T05:21:11;7.70;99.90
20370;DHT22;10344;47.592;9.600;2023-11-19T05:23:36;7.70;99.90
20370;DHT22;10344;47.592;9.600;2023-11-19T05:26:02;7.70;99.90
20370;DHT22;10344;47.592;9.600;2023-11-19T05:28:28;7.80;99.90
20370;DHT22;10344;47.592;9.600;2023-11-19T05:30:54;7.80;99.90
20370;DHT22;10344;47.592;9.600;2023-11-19T05:33:20;7.90;99.90
20370;DHT22;10344;47.592;9.600;2023-11-19T05:35:46;7.90;99.90
20370;DHT22;10344;47.592;9.600;2023-11-19T05:38:12;7.90;99.90
20370;DHT22;10344;47.592;9.600;2023-11-19T05:40:38;7.90;99.90
20370;DHT22;10344;47.592;9.600;2023-11-19T05:43:04;8.00;99.90
20370;DHT22;10344;47.592;9.600;2023-11-19T05:45:31;8.20;99.90
20370;DHT22;10344;47.592;9.600;2023-11-19T05:47:57;8.10;99.90
20370;DHT22;10344;47.592;9.600;2023-11-19T05:50:23;8.20;99.90
20370;DHT22;10344;47.592;9.600;2023-11-19T05:52:49;8.20;99.90
20370;DHT22;10344;47.592;9.600;2023-11-19T05:55:15;8.30;99.90
20370;DHT22;10344;47.592;9.600;2023-11-19T05:57:41;8.30;99.90
20370;DHT22;10344;47.592;9.600;2023-11-19T06:00:07;8.40;99.90
20370;DHT22;10344;47.592;9.600;2023-11-19T06:02:34;8.40;99.90
20370;DHT22;10344;47.592;9.600;2023-11-19T06:05:00;8.40;99.90
20370;DHT22;10344;47.592;9.600;2023-11-19T06:07:27;8.40;99.90
20370;DHT22;10344;47.592;9.600;2023-11-19T06:09:53;8.40;99.90
20370;DHT22;10344;47.592;9.600;2023-11-19T06:12:21;8.40;99.90
20370;DHT22;10344;47.592;9.600;2023-11-19T06:14:46;8.50;99.90
20370;DHT22;10344;47.592;9.600;2023-11-19T06:17:12;8.50;99.90
20370;DHT22;10344;47.592;9.600;2023-11-19T06:19:38;8.50;99.90
20370;DHT22;10344;47.592;9.600;2023-11-19T06:22:03;8.50;99.90
20370;DHT22;10344;47.592;9.600;2023-11-19T06:24:29;8.50;99.90
20370;DHT22;10344;47.592;9.600;2023-11-19T06:26:55;8.50;99.90
20370;DHT22;10344;47.592;9.600;2023-11-19T06:29:20;8.50;99.90
20370;DHT22;10344;47.592;9.600;2023-11-19T06:31:46;8.50;99.90
20370;DHT22;10344;47.592;9.600;2023-11-19T06:34:14;8.40;99.90
20370;DHT22;10344;47.592;9.600;2023-11-19T06:36:40;8.40;99.90
20370;DHT22;10344;47.592;9.600;2023-11-19T06:39:06;8.30;99.90
20370;DHT22;10344;47.592;9.600;2023-11-19T06:41:34;8.30;99.90
20370;DHT22;10344;47.592;9.600;2023-11-19T06:44:00;8.30;99.90
20370;DHT22;10344;47.592;9.600;2023-11-19T06:46:28;8.30;99.90
20370;DHT22;10344;47.592;9.600;2023-11-19T06:48:55;8.30;99.90
20370;DHT22;10344;47.592;9.600;2023-11-19T06:51:21;8.20;99.90
20370;DHT22;10344;47.592;9.600;2023-11-19T06:53:47;8.10;99.90
20370;DHT22;10344;47.592;9.600;2023-11-19T06:56:22;8.10;99.90
20370;DHT22;10344;47.592;9.600;2023-11-19T06:58:51;8.10;99.90
20370;DHT22;10344;47.592;9.600;2023-11-19T07:01:20;8.10;99.90
20370;DHT22;10344;47.592;9.600;2023-11-19T07:03:46;8.10;99.90
20370;DHT22;10344;47.592;9.600;2023-11-19T07:06:12;8.10;99.90
20370;DHT22;10344;47.592;9.600;2023-11-19T07:08:39;8.10;99.90
20370;DHT22;10344;47.592;9.600;2023-11-19T07:11:05;8.10;99.90
20370;DHT22;10344;47.592;9.600;2023-11-19T07:13:30;8.10;99.90
20370;DHT22;10344;47.592;9.600;2023-11-19T07:15:56;8.00;99.90
20370;DHT22;10344;47.592;9.600;2023-11-19T07:18:25;8.10;99.90
20370;DHT22;10344;47.592;9.600;2023-11-19T07:20:50;8.00;99.90
20370;DHT22;10344;47.592;9.600;2023-11-19T07:23:16;8.00;99.90
20370;DHT22;10344;47.592;9.600;2023-11-19T07:25:44;8.00;99.90
20370;DHT22;10344;47.592;9.600;2023-11-19T07:28:13;8.00;99.90
20370;DHT22;10344;47.592;9.600;2023-11-19T07:30:39;8.00;99.90
20370;DHT22;10344;47.592;9.600;2023-11-19T07:33:05;8.10;99.90
20370;DHT22;10344;47.592;9.600;2023-11-19T07:35:31;8.20;99.90
20370;DHT22;10344;47.592;9.600;2023-11-19T07:37:57;8.20;99.90
20370;DHT22;10344;47.592;9.600;2023-11-19T07:40:23;8.30;99.90
20370;DHT22;10344;47.592;9.600;2023-11-19T07:42:49;8.30;99.90
20370;DHT22;10344;47.592;9.600;2023-11-19T07:45:17;8.30;99.90
20370;DHT22;10344;47.592;9.600;2023-11-19T07:47:43;8.20;99.90
20370;DHT22;10344;47.592;9.600;2023-11-19T07:50:10;8.30;99.90
20370;DHT22;10344;47.592;9.600;2023-11-19T07:52:39;8.30;99.90
20370;DHT22;10344;47.592;9.600;2023-11-19T07:55:07;8.40;99.90
20370;DHT22;10344;47.592;9.600;2023-11-19T07:57:35;8.40;99.90
20370;DHT22;10344;47.592;9.600;2023-11-19T08:00:02;8.40;99.90
20370;DHT22;10344;47.592;9.600;2023-11-19T08:02:28;8.40;99.90
20370;DHT22;10344;47.592;9.600;2023-11-19T08:04:54;8.50;99.90
20370;DHT22;10344;47.592;9.600;2023-11-19T08:07:21;8.50;99.90
20370;DHT22;10344;47.592;9.600;2023-11-19T08:09:47;8.50;99.90
20370;DHT22;10344;47.592;9.600;2023-11-19T08:12:13;8.50;99.90
20370;DHT22;10344;47.592;9.600;2023-11-19T08:14:41;8.50;99.90
20370;DHT22;10344;47.592;9.600;2023-11-19T08:17:07;8.60;99.90
20370;DHT22;10344;47.592;9.600;2023-11-19T08:19:33;8.60;99.90
20370;DHT22;10344;47.592;9.600;2023-11-19T08:21:58;8.60;99.90
20370;DHT22;10344;47.592;9.600;2023-11-19T08:24:24;8.70;99.90
20370;DHT22;10344;47.592;9.600;2023-11-19T08:26:52;8.70;99.90
20370;DHT22;10344;47.592;9.600;2023-11-19T08:29:17;8.70;99.90
20370;DHT22;10344;47.592;9.600;2023-11-19T08:31:43;8.80;99.90
20370;DHT22;10344;47.592;9.600;2023-11-19T08:34:09;8.70;99.90
20370;DHT22;10344;47.592;9.600;2023-11-19T08:36:35;8.70;99.90
20370;DHT22;10344;47.592;9.600;2023-11-19T08:39:00;8.70;99.90
20370;DHT22;10344;47.592;9.600;2023-11-19T08:41:28;8.70;99.90
20370;DHT22;10344;47.592;9.600;2023-11-19T08:43:54;8.80;99.90
20370;DHT22;10344;47.592;9.600;2023-11-19T08:46:19;8.80;99.90
20370;DHT22;10344;47.592;9.600;2023-11-19T08:48:45;8.80;99.90
20370;DHT22;10344;47.592;9.600;2023-11-19T08:51:12;8.90;99.90
20370;DHT22;10344;47.592;9.600;2023-11-19T08:53:38;8.90;99.90
20370;DHT22;10344;47.592;9.600;2023-11-19T08:56:04;9.00;99.90
20370;DHT22;10344;47.592;9.600;2023-11-19T08:58:29;9.10;99.90
20370;DHT22;10344;47.592;9.600;2023-11-19T09:00:56;9.10;99.90
20370;DHT22;10344;47.592;9.600;2023-11-19T09:03:21;9.10;99.90
20370;DHT22;10344;47.592;9.600;2023-11-19T09:05:47;9.10;99.90
20370;DHT22;10344;47.592;9.600;2023-11-19T09:08:15;9.10;99.90
20370;DHT22;10344;47.592;9.600;2023-11-19T09:10:43;9.10;99.90
20370;DHT22;10344;47.592;9.600;2023-11-19T09:13:09;9.20;99.90
20370;DHT22;10344;47.592;9.600;2023-11-19T09:15:34;9.20;99.90
20370;DHT22;10344;47.592;9.600;2023-11-19T09:18:02;9.10;99.90
20370;DHT22;10344;47.592;9.600;2023-11-19T09:20:28;9.20;99.90
20370;DHT22;10344;47.592;9.600;2023-11-19T09:22:57;9.30;99.90
20370;DHT22;10344;47.592;9.600;2023-11-19T09:25:25;9.30;99.90
20370;DHT22;10344;47.592;9.600;2023-11-19T09:27:53;9.40;99.90
20370;DHT22;10344;47.592;9.600;2023-11-19T09:30:19;9.40;99.90
20370;DHT22;10344;47.592;9.600;2023-11-19T09:32:45;9.40;99.90
20370;DHT22;10344;47.592;9.600;2023-11-19T09:35:11;9.50;99.90
20370;DHT22;10344;47.592;9.600;2023-11-19T09:37:39;9.40;99.90
20370;DHT22;10344;47.592;9.600;2023-11-19T09:40:07;9.50;99.90
20370;DHT22;10344;47.592;9.600;2023-11-19T09:42:43;9.50;99.90
20370;DHT22;10344;47.592;9.600;2023-11-19T09:45:16;9.60;99.90
20370;DHT22;10344;47.592;9.600;2023-11-19T09:47:46;9.60;99.90
20370;DHT22;10344;47.592;9.600;2023-11-19T09:50:19;9.80;99.90
20370;DHT22;10344;47.592;9.600;2023-11-19T09:52:49;9.90;99.90
20370;DHT22;10344;47.592;9.600;2023-11-19T09:55:15;10.00;99.90
20370;DHT22;10344;47.592;9.600;2023-11-19T09:57:41;9.90;99.90
20370;DHT22;10344;47.592;9.600;2023-11-19T10:00:07;9.90;99.90
20370;DHT22;10344;47.592;9.600;2023-11-19T10:02:35;10.00;99.90
20370;DHT22;10344;47.592;9.600;2023-11-19T10:05:08;10.10;99.90
20370;DHT22;10344;47.592;9.600;2023-11-19T10:07:35;10.10;99.90
20370;DHT22;10344;47.592;9.600;2023-11-19T10:10:02;10.30;99.90
20370;DHT22;10344;47.592;9.600;2023-11-19T10:12:33;10.50;99.90
20370;DHT22;10344;47.592;9.600;2023-11-19T10:14:59;10.50;99.90
20370;DHT22;10344;47.592;9.600;2023-11-19T10:17:36;10.50;99.90
20370;DHT22;10344;47.592;9.600;2023-11-19T10:20:01;10.60;99.90
20370;DHT22;10344;47.592;9.600;2023-11-19T10:22:28;10.70;99.90
20370;DHT22;10344;47.592;9.600;2023-11-19T10:24:54;10.80;99.90
20370;DHT22;10344;47.592;9.600;2023-11-19T10:27:20;10.90;99.90
20370;DHT22;10344;47.592;9.600;2023-11-19T10:29:46;11.00;99.90
20370;DHT22;10344;47.592;9.600;2023-11-19T10:32:14;11.10;99.90
20370;DHT22;10344;47.592;9.600;2023-11-19T10:34:40;11.20;99.90
20370;DHT22;10344;47.592;9.600;2023-11-19T10:37:09;11.30;99.90
20370;DHT22;10344;47.592;9.600;2023-11-19T10:39:53;11.30;99.90
20370;DHT22;10344;47.592;9.600;2023-11-19T10:42:21;11.30;99.90
20370;DHT22;10344;47.592;9.600;2023-11-19T10:44:47;11.30;99.90
20370;DHT22;10344;47.592;9.600;2023-11-19T10:47:15;11.30;99.90
20370;DHT22;10344;47.592;9.600;2023-11-19T10:49:44;11.30;99.90
20370;DHT22;10344;47.592;9.600;2023-11-19T10:52:12;11.40;99.90
20370;DHT22;10344;47.592;9.600;2023-11-19T10:54:43;11.40;99.90
20370;DHT22;10344;47.592;9.600;2023-11-19T10:57:12;11.40;99.90
20370;DHT22;10344;47.592;9.600;2023-11-19T10:59:44;11.40;99.90
20370;DHT22;10344;47.592;9.600;2023-11-19T11:02:14;11.60;99.90
20370;DHT22;10344;47.592;9.600;2023-11-19T11:04:44;11.90;99.90
20370;DHT22;10344;47.592;9.600;2023-11-19T11:07:12;12.00;99.90
20370;DHT22;10344;47.592;9.600;2023-11-19T11:09:38;12.10;99.90
20370;DHT22;10344;47.592;9.600;2023-11-19T11:12:07;12.30;99.90
20370;DHT22;10344;47.592;9.600;2023-11-19T11:14:37;12.30;99.90
20370;DHT22;10344;47.592;9.600;2023-11-19T11:17:08;12.20;99.90
20370;DHT22;10344;47.592;9.600;2023-11-19T11:19:36;12.10;99.90
20370;DHT22;10344;47.592;9.600;2023-11-19T11:22:03;12.10;99.90
20370;DHT22;10344;47.592;9.600;2023-11-19T11:24:43;12.00;99.90
20370;DHT22;10344;47.592;9.600;2023-11-19T11:32:45;12.10;99.90
20370;DHT22;10344;47.592;9.600;2023-11-19T11:38:37;12.00;99.90
20370;DHT22;10344;47.592;9.600;2023-11-19T11:49:04;11.90;99.90
20370;DHT22;10344;47.592;9.600;2023-11-19T11:57:07;11.80;99.90
20370;DHT22;10344;47.592;9.600;2023-11-19T12:02:19;12.20;99.90
20370;DHT22;10344;47.592;9.600;2023-11-19T12:04:48;12.40;99.90
20370;DHT22;10344;47.592;9.600;2023-11-19T12:07:24;12.50;99.90
20370;DHT22;10344;47.592;9.600;2023-11-19T12:10:04;12.70;99.90
20370;DHT22;10344;47.592;9.600;2023-11-19T12:12:32;12.70;99.90
20370;DHT22;10344;47.592;9.600;2023-11-19T12:20:08;13.00;99.90
20370;DHT22;10344;47.592;9.600;2023-11-19T12:22:39;13.00;99.90
20370;DHT22;10344;47.592;9.600;2023-11-19T12:25:06;13.10;99.90
20370;DHT22;10344;47.592;9.600;2023-11-19T12:27:36;13.10;99.90
20370;DHT22;10344;47.592;9.600;2023-11-19T12:30:03;13.20;99.90
20370;DHT22;10344;47.592;9.600;2023-11-19T12:32:45;13.20;99.90
20370;DHT22;10344;47.592;9.600;2023-11-19T12:35:14;13.30;99.90
20370;DHT22;10344;47.592;9.600;2023-11-19T12:37:44;13.30;99.90
20370;DHT22;10344;47.592;9.600;2023-11-19T12:40:22;13.30;99.90
20370;DHT22;10344;47.592;9.600;2023-11-19T12:42:50;13.40;99.90
20370;DHT22;10344;47.592;9.600;2023-11-19T12:45:18;13.40;99.90
20370;DHT22;10344;47.592;9.600;2023-11-19T12:47:49;13.50;99.90
20370;DHT22;10344;47.592;9.600;2023-11-19T12:50:20;13.40;99.90
20370;DHT22;10344;47.592;9.600;2023-11-19T12:52:58;13.40;99.90
20370;DHT22;10344;47.592;9.600;2023-11-19T12:55:25;13.40;99.90
20370;DHT22;10344;47.592;9.600;2023-11-19T12:57:51;13.40;99.90
20370;DHT22;10344;47.592;9.600;2023-11-19T13:00:19;13.40;99.90
20370;DHT22;10344;47.592;9.600;2023-11-19T13:02:57;13.40;99.90
20370;DHT22;10344;47.592;9.600;2023-11-19T13:05:31;13.40;99.90
20370;DHT22;10344;47.592;9.600;2023-11-19T13:08:07;13.60;99.90
20370;DHT22;10344;47.592;9.600;2023-11-19T13:10:50;13.60;99.90
20370;DHT22;10344;47.592;9.600;2023-11-19T13:13:17;13.70;99.90
20370;DHT22;10344;47.592;9.600;2023-11-19T13:15:42;13.70;99.90
20370;DHT22;10344;47.592;9.600;2023-11-19T13:18:10;13.70;99.90
20370;DHT22;10344;47.592;9.600;2023-11-19T13:20:36;13.70;99.90
20370;DHT22;10344;47.592;9.600;2023-11-19T13:23:03;13.80;99.90
20370;DHT22;10344;47.592;9.600;2023-11-19T13:25:30;13.90;99.90
20370;DHT22;10344;47.592;9.600;2023-11-19T13:27:59;14.10;99.90
20370;DHT22;10344;47.592;9.600;2023-11-19T13:30:25;14.10;99.90
20370;DHT22;10344;47.592;9.600;2023-11-19T13:32:52;14.20;99.90
20370;DHT22;10344;47.592;9.600;2023-11-19T13:35:18;14.30;99.90
20370;DHT22;10344;47.592;9.600;2023-11-19T13:37:45;14.30;99.90
20370;DHT22;10344;47.592;9.600;2023-11-19T13:40:11;14.30;99.90
20370;DHT22;10344;47.592;9.600;2023-11-19T13:42:41;14.30;99.90
20370;DHT22;10344;47.592;9.600;2023-11-19T13:45:11;14.20;99.90
20370;DHT22;10344;47.592;9.600;2023-11-19T13:47:41;14.30;99.90
20370;DHT22;10344;47.592;9.600;2023-11-19T13:50:11;14.40;99.90
20370;DHT22;10344;47.592;9.600;2023-11-19T13:52:37;14.40;99.90
20370;DHT22;10344;47.592;9.600;2023-11-19T13:55:08;14.40;99.90
20370;DHT22;10344;47.592;9.600;2023-11-19T13:57:34;14.40;99.90
20370;DHT22;10344;47.592;9.600;2023-11-19T14:00:02;14.30;99.90
20370;DHT22;10344;47.592;9.600;2023-11-19T14:02:30;14.30;99.90
20370;DHT22;10344;47.592;9.600;2023-11-19T14:04:56;14.20;99.90
20370;DHT22;10344;47.592;9.600;2023-11-19T14:07:24;14.20;99.90
20370;DHT22;10344;47.592;9.600;2023-11-19T14:09:49;14.20;99.90
20370;DHT22;10344;47.592;9.600;2023-11-19T14:12:15;14.20;99.90
20370;DHT22;10344;47.592;9.600;2023-11-19T14:14:41;14.00;99.90
20370;DHT22;10344;47.592;9.600;2023-11-19T14:17:07;14.10;99.90
20370;DHT22;10344;47.592;9.600;2023-11-19T14:19:33;14.00;99.90
20370;DHT22;10344;47.592;9.600;2023-11-19T14:21:59;14.10;99.90
20370;DHT22;10344;47.592;9.600;2023-11-19T14:24:25;14.00;99.90
20370;DHT22;10344;47.592;9.600;2023-11-19T14:26:51;14.00;99.90
20370;DHT22;10344;47.592;9.600;2023-11-19T14:29:19;14.00;99.90
20370;DHT22;10344;47.592;9.600;2023-11-19T14:31:45;14.00;99.90
20370;DHT22;10344;47.592;9.600;2023-11-19T14:34:10;13.90;99.90
20370;DHT22;10344;47.592;9.600;2023-11-19T14:36:36;13.90;99.90
20370;DHT22;10344;47.592;9.600;2023-11-19T14:39:02;13.80;99.90
20370;DHT22;10344;47.592;9.600;2023-11-19T14:41:29;13.80;99.90
20370;DHT22;10344;47.592;9.600;2023-11-19T14:43:54;13.70;99.90
20370;DHT22;10344;47.592;9.600;2023-11-19T14:46:22;13.70;99.90
20370;DHT22;10344;47.592;9.600;2023-11-19T14:48:48;13.70;99.90
20370;DHT22;10344;47.592;9.600;2023-11-19T14:51:14;13.70;99.90
20370;DHT22;10344;47.592;9.600;2023-11-19T14:53:39;13.60;99.90
20370;DHT22;10344;47.592;9.600;2023-11-19T14:56:10;13.60;99.90
20370;DHT22;10344;47.592;9.600;2023-11-19T14:58:38;13.60;99.90
20370;DHT22;10344;47.592;9.600;2023-11-19T15:01:04;13.60;99.90
20370;DHT22;10344;47.592;9.600;2023-11-19T15:03:30;13.50;99.90
20370;DHT22;10344;47.592;9.600;2023-11-19T15:05:58;13.50;99.90
20370;DHT22;10344;47.592;9.600;2023-11-19T15:08:24;13.50;99.90
20370;DHT22;10344;47.592;9.600;2023-11-19T15:10:49;13.40;99.90
20370;DHT22;10344;47.592;9.600;2023-11-19T15:13:15;13.30;99.90
20370;DHT22;10344;47.592;9.600;2023-11-19T15:15:41;13.40;99.90
20370;DHT22;10344;47.592;9.600;2023-11-19T15:18:07;13.40;99.90
20370;DHT22;10344;47.592;9.600;2023-11-19T15:20:33;13.40;99.90
20370;DHT22;10344;47.592;9.600;2023-11-19T15:22:58;13.40;99.90
20370;DHT22;10344;47.592;9.600;2023-11-19T15:25:26;13.40;99.90
20370;DHT22;10344;47.592;9.600;2023-11-19T15:27:52;13.40;99.90
20370;DHT22;10344;47.592;9.600;2023-11-19T15:30:17;13.40;99.90
20370;DHT22;10344;47.592;9.600;2023-11-19T15:32:43;13.30;99.90
20370;DHT22;10344;47.592;9.600;2023-11-19T15:35:12;13.30;99.90
20370;DHT22;10344;47.592;9.600;2023-11-19T15:37:38;13.20;99.90
20370;DHT22;10344;47.592;9.600;2023-11-19T15:40:09;13.20;99.90
20370;DHT22;10344;47.592;9.600;2023-11-19T15:42:35;13.10;99.90
20370;DHT22;10344;47.592;9.600;2023-11-19T15:45:01;13.00;99.90
20370;DHT22;10344;47.592;9.600;2023-11-19T15:47:30;13.00;99.90
20370;DHT22;10344;47.592;9.600;2023-11-19T15:49:56;13.00;99.90
20370;DHT22;10344;47.592;9.600;2023-11-19T15:52:24;12.90;99.90
20370;DHT22;10344;47.592;9.600;2023-11-19T15:54:52;12.90;99.90
20370;DHT22;10344;47.592;9.600;2023-11-19T15:57:18;12.80;99.90
20370;DHT22;10344;47.592;9.600;2023-11-19T15:59:43;12.80;99.90
20370;DHT22;10344;47.592;9.600;2023-11-19T16:02:11;12.80;99.90
20370;DHT22;10344;47.592;9.600;2023-11-19T16:04:37;12.80;99.90
20370;DHT22;10344;47.592;9.600;2023-11-19T16:07:05;12.70;99.90
20370;DHT22;10344;47.592;9.600;2023-11-19T16:09:31;12.70;99.90
20370;DHT22;10344;47.592;9.600;2023-11-19T16:11:57;12.60;99.90